Terminal Aerodrome Forecast
Issued by NWS Paducah, KY

Home | Current Version | Previous Version | Text Only | Print | Product List | Glossary On
Versions: 1 2 3 4 5 6 7 8 9 10 11 12 13 14 15 16 17 18 19
000
FTUS43 KPAH 302300
TAFEVV
TAF
KEVV 302324Z 3100/3124 18006KT P6SM -SHRA SCT030 OVC150
     FM310300 19006KT 5SM SHRA BR BKN030
     FM311000 20004KT 3SM SHRA BR OVC009
     FM311600 22007KT P6SM BKN030=

USA.gov is the U.S. government's official web portal to all federal, state and local government web resources and services.